Time;durP1;ratioP1;P1;durP2;ratioP2;P2;SDS_P1;SDS_P2;PMS_P1;PMS_P2;Temp;Humidity;BMP_temperature;BMP_pressure;BME280_temperature;BME280_humidity;BME280_pressure;Samples;Min_cycle;Max_cycle;Signal;HPM_P1;HPM_P2
2022/04/26 03:37:41;;;;;;;17.60;9.30;;;8.90;99.90;;;;;;6284266;22;20385;-45
2022/04/26 03:40:09;;;;;;;12.23;7.27;;;8.90;99.90;;;;;;6283634;22;20402;-43
2022/04/26 03:42:36;;;;;;;14.13;8.47;;;8.90;99.90;;;;;;6284014;22;20907;-45
2022/04/26 03:45:04;;;;;;;12.00;8.40;;;8.80;99.90;;;;;;6283533;22;20407;-47
2022/04/26 03:47:30;;;;;;;12.33;8.30;;;8.90;99.90;;;;;;6283708;22;20413;-47
2022/04/26 03:49:58;;;;;;;15.47;9.10;;;8.90;99.90;;;;;;6283762;22;20457;-45
2022/04/26 03:52:25;;;;;;;16.10;8.17;;;8.90;99.90;;;;;;6283539;22;20407;-45
2022/04/26 03:54:52;;;;;;;16.90;9.23;;;8.90;99.90;;;;;;6283564;22;20414;-47
2022/04/26 03:57:18;;;;;;;22.10;8.90;;;8.90;99.90;;;;;;6283311;22;20394;-43
2022/04/26 03:59:45;;;;;;;15.70;8.57;;;8.90;99.90;;;;;;6283187;22;20418;-41
2022/04/26 04:02:11;;;;;;;14.17;8.10;;;8.90;99.90;;;;;;6283283;22;20418;-49
2022/04/26 04:04:38;;;;;;;34.10;9.93;;;8.90;99.90;;;;;;6283736;22;20418;-46
2022/04/26 04:07:06;;;;;;;19.53;8.53;;;8.90;99.90;;;;;;6283866;22;20387;-46
2022/04/26 04:09:33;;;;;;;15.60;9.57;;;8.90;99.90;;;;;;6283986;22;20511;-45
2022/04/26 04:11:59;;;;;;;14.70;8.87;;;8.90;99.90;;;;;;6283677;22;20422;-46
2022/04/26 04:14:26;;;;;;;12.60;8.20;;;8.90;99.90;;;;;;6283781;22;20409;-45
2022/04/26 04:16:55;;;;;;;13.40;6.93;;;9.00;99.90;;;;;;6283111;22;20426;-45
2022/04/26 04:19:21;;;;;;;19.70;10.13;;;9.00;99.90;;;;;;6283505;22;20760;-44
2022/04/26 04:21:49;;;;;;;20.90;9.17;;;9.00;99.90;;;;;;6283312;22;20430;-42
2022/04/26 04:24:18;;;;;;;14.00;7.47;;;9.00;99.90;;;;;;6283672;22;20409;-43
2022/04/26 04:26:45;;;;;;;13.80;8.50;;;9.00;99.90;;;;;;6284190;22;20410;-46
2022/04/26 04:29:12;;;;;;;16.20;7.77;;;9.00;99.90;;;;;;6283825;22;20776;-43
2022/04/26 04:31:40;;;;;;;14.97;7.90;;;9.00;99.90;;;;;;6283244;22;20402;-42
2022/04/26 04:34:07;;;;;;;21.40;8.67;;;9.00;99.90;;;;;;6283370;22;20491;-45
2022/04/26 04:36:34;;;;;;;15.50;8.50;;;9.00;99.90;;;;;;6283637;22;20398;-47
2022/04/26 04:39:01;;;;;;;14.80;7.53;;;9.00;99.90;;;;;;6283360;22;20426;-45
2022/04/26 04:41:35;;;;;;;14.67;7.80;;;9.00;99.90;;;;;;6283321;22;20398;-47
2022/04/26 04:44:07;;;;;;;14.10;6.77;;;9.00;99.90;;;;;;6283460;22;20907;-44
2022/04/26 04:46:34;;;;;;;13.30;8.27;;;8.90;99.90;;;;;;6283714;22;20721;-40
2022/04/26 04:49:00;;;;;;;15.43;7.63;;;8.90;99.90;;;;;;6283076;22;20433;-42
2022/04/26 04:51:27;;;;;;;24.87;8.50;;;9.00;99.90;;;;;;6283573;22;20452;-44
2022/04/26 04:53:54;;;;;;;15.40;8.27;;;9.00;99.90;;;;;;6283357;22;20425;-41
2022/04/26 04:56:23;;;;;;;15.27;6.93;;;8.90;99.90;;;;;;6283048;22;20402;-44
2022/04/26 04:58:51;;;;;;;18.90;5.90;;;9.00;99.90;;;;;;6282795;22;20421;-45
2022/04/26 05:01:18;;;;;;;12.43;8.60;;;9.00;99.90;;;;;;6283091;22;20437;-48
2022/04/26 05:03:44;;;;;;;11.27;8.13;;;9.00;99.90;;;;;;6283095;22;20476;-47
2022/04/26 05:06:13;;;;;;;11.47;7.70;;;9.10;99.90;;;;;;6282526;22;20430;-43
2022/04/26 05:08:40;;;;;;;16.60;7.53;;;9.10;99.90;;;;;;6283420;22;20577;-41
2022/04/26 05:11:06;;;;;;;10.43;7.07;;;9.20;99.90;;;;;;6283333;22;20869;-45
2022/04/26 05:13:33;;;;;;;14.10;7.50;;;9.20;99.90;;;;;;6283493;22;20432;-47
2022/04/26 05:16:01;;;;;;;11.50;7.00;;;9.20;99.90;;;;;;6283267;22;20399;-46
2022/04/26 05:18:28;;;;;;;13.10;7.20;;;9.30;99.90;;;;;;6283015;22;20406;-42
2022/04/26 05:20:55;;;;;;;10.13;6.20;;;9.20;99.90;;;;;;6282705;22;20425;-42
2022/04/26 05:26:07;;;;;;;15.90;6.97;;;9.30;99.90;;;;;;6282941;22;20832;-41
2022/04/26 05:28:35;;;;;;;9.87;7.30;;;9.30;99.90;;;;;;6282323;22;20441;-46
2022/04/26 05:31:03;;;;;;;14.47;8.27;;;9.40;99.90;;;;;;6283105;22;20428;-46
2022/04/26 05:33:30;;;;;;;12.00;7.07;;;9.40;99.90;;;;;;6282781;22;20406;-43
2022/04/26 05:35:57;;;;;;;11.80;6.83;;;9.40;99.90;;;;;;6282868;22;20484;-42
2022/04/26 05:38:23;;;;;;;10.57;6.53;;;9.50;99.90;;;;;;6282550;22;20402;-46
2022/04/26 05:40:50;;;;;;;11.67;6.63;;;9.50;99.90;;;;;;6282408;22;20896;-49
2022/04/26 05:43:17;;;;;;;10.07;6.13;;;9.60;99.90;;;;;;6282537;22;20422;-47
2022/04/26 05:45:44;;;;;;;10.93;6.77;;;9.60;99.90;;;;;;6283175;22;20425;-44
2022/04/26 05:48:13;;;;;;;9.77;6.03;;;9.60;99.90;;;;;;6283089;22;20473;-44
2022/04/26 05:50:40;;;;;;;9.80;6.43;;;9.70;99.90;;;;;;6282193;22;20438;-44
2022/04/26 05:53:07;;;;;;;12.73;7.20;;;9.70;99.90;;;;;;6282720;22;20398;-45
2022/04/26 05:55:34;;;;;;;17.23;7.87;;;9.80;99.90;;;;;;6282608;22;20409;-45
2022/04/26 05:58:02;;;;;;;13.90;6.63;;;9.80;99.90;;;;;;6282611;22;20414;-45
2022/04/26 06:00:31;;;;;;;13.57;7.27;;;9.90;99.90;;;;;;6281714;22;20414;-43
2022/04/26 06:02:58;;;;;;;13.43;6.40;;;9.90;99.90;;;;;;6282612;22;20710;-42
2022/04/26 06:05:28;;;;;;;8.37;6.27;;;10.00;99.90;;;;;;6282599;22;20439;-46
2022/04/26 06:07:54;;;;;;;9.73;6.00;;;10.10;99.90;;;;;;6282530;22;20490;-49
2022/04/26 06:10:22;;;;;;;9.47;6.83;;;10.10;99.90;;;;;;6282275;22;20442;-46
2022/04/26 06:12:49;;;;;;;7.10;5.30;;;10.10;99.90;;;;;;6282453;22;20410;-45
2022/04/26 06:15:17;;;;;;;8.80;5.60;;;10.10;99.90;;;;;;6282498;22;20451;-45
2022/04/26 06:17:44;;;;;;;13.33;5.20;;;10.10;99.90;;;;;;6282431;22;20406;-45
2022/04/26 06:20:12;;;;;;;11.63;6.33;;;10.20;99.90;;;;;;6282546;22;20876;-42
2022/04/26 06:22:40;;;;;;;10.07;6.40;;;10.30;99.90;;;;;;6282679;22;20417;-45
2022/04/26 06:25:07;;;;;;;12.23;5.97;;;10.30;99.90;;;;;;6284244;22;20488;-45
2022/04/26 06:27:34;;;;;;;7.90;5.43;;;10.40;99.90;;;;;;6284013;22;20421;-46
2022/04/26 06:30:01;;;;;;;9.67;4.83;;;10.50;99.90;;;;;;6283941;22;20523;-44
2022/04/26 06:32:28;;;;;;;5.70;3.63;;;10.60;99.90;;;;;;6283778;22;20413;-42
2022/04/26 06:34:54;;;;;;;12.73;4.43;;;10.60;99.90;;;;;;6284371;22;20524;-48
2022/04/26 06:37:23;;;;;;;6.07;4.10;;;10.80;99.90;;;;;;6284144;22;20433;-41
2022/04/26 06:39:51;;;;;;;7.43;3.70;;;10.80;99.90;;;;;;6283256;22;20417;-44
2022/04/26 06:42:18;;;;;;;8.33;5.00;;;10.90;99.90;;;;;;6283980;22;20402;-50
2022/04/26 06:44:44;;;;;;;5.53;4.10;;;11.00;99.90;;;;;;6283727;22;20502;-45
2022/04/26 06:47:11;;;;;;;7.57;4.00;;;11.10;99.90;;;;;;6283216;22;20426;-44
2022/04/26 06:49:38;;;;;;;4.73;3.30;;;11.20;99.90;;;;;;6283234;22;20434;-51
2022/04/26 06:52:05;;;;;;;7.00;4.20;;;11.30;99.90;;;;;;6282762;22;20958;-44
2022/04/26 06:54:31;;;;;;;6.00;3.73;;;11.50;99.90;;;;;;6284190;22;20409;-45
2022/04/26 06:56:59;;;;;;;5.90;3.73;;;11.50;99.90;;;;;;6283564;22;20485;-45
2022/04/26 06:59:26;;;;;;;4.17;3.53;;;11.50;99.90;;;;;;6294100;22;20460;-45
2022/04/26 07:01:54;;;;;;;16.73;4.43;;;11.60;99.90;;;;;;6286599;22;20410;-48
2022/04/26 07:04:22;;;;;;;7.63;3.40;;;11.70;99.90;;;;;;6286883;22;20432;-44
2022/04/26 07:06:49;;;;;;;5.57;3.60;;;11.80;99.90;;;;;;6286590;22;20394;-45
2022/04/26 07:09:16;;;;;;;10.20;3.30;;;11.80;99.90;;;;;;6286793;22;20445;-46
2022/04/26 07:11:43;;;;;;;7.77;3.40;;;11.90;99.90;;;;;;6286976;22;20498;-45
2022/04/26 07:14:12;;;;;;;5.30;2.83;;;12.00;99.90;;;;;;6285512;22;20435;-45
2022/04/26 07:16:39;;;;;;;4.80;3.30;;;12.00;99.90;;;;;;6286652;22;20418;-47
2022/04/26 07:19:06;;;;;;;12.63;2.80;;;12.10;99.90;;;;;;6286947;22;20426;-45
2022/04/26 07:21:35;;;;;;;6.80;3.47;;;12.20;99.90;;;;;;6285996;22;20425;-49
2022/04/26 07:24:02;;;;;;;3.00;2.70;;;12.30;99.90;;;;;;6286432;22;20436;-48
2022/04/26 07:26:29;;;;;;;4.37;3.40;;;12.30;99.90;;;;;;6287188;22;20413;-44
2022/04/26 07:28:55;;;;;;;4.53;3.07;;;12.40;99.90;;;;;;6286591;22;20483;-47
2022/04/26 07:31:24;;;;;;;3.63;2.90;;;12.50;99.90;;;;;;6286382;22;20434;-42
2022/04/26 07:36:34;;;;;;;3.70;2.33;;;12.70;98.40;;;;;;6286984;22;20370;-46
2022/04/26 07:39:01;;;;;;;5.37;4.67;;;12.80;97.00;;;;;;6286835;22;20729;-43
2022/04/26 07:41:28;;;;;;;4.00;2.20;;;12.80;95.00;;;;;;6286491;22;20428;-42
2022/04/26 07:43:55;;;;;;;2.83;1.93;;;13.00;95.20;;;;;;6286381;22;20422;-45
2022/04/26 07:46:24;;;;;;;2.73;1.67;;;13.20;94.70;;;;;;6285722;22;20406;-41
2022/04/26 07:48:50;;;;;;;3.17;2.27;;;13.40;93.70;;;;;;6285895;22;20445;-45
2022/04/26 07:51:18;;;;;;;7.23;2.20;;;14.10;93.60;;;;;;6285005;22;20440;-48
2022/04/26 07:53:45;;;;;;;3.00;2.70;;;15.80;91.30;;;;;;6283730;22;20449;-47
2022/04/26 07:56:11;;;;;;;3.20;2.47;;;18.10;79.10;;;;;;6283780;22;20416;-46
2022/04/26 07:58:38;;;;;;;2.80;2.23;;;20.10;67.00;;;;;;6282915;22;20409;-43
2022/04/26 08:01:05;;;;;;;2.70;2.17;;;22.10;56.30;;;;;;6295185;22;20467;-49
2022/04/26 08:03:35;;;;;;;3.53;2.03;;;23.80;49.10;;;;;;6303398;22;20406;-46
2022/04/26 08:06:02;;;;;;;3.60;1.87;;;25.50;45.00;;;;;;6303274;22;20429;-50
2022/04/26 08:08:32;;;;;;;3.40;2.17;;;27.10;39.50;;;;;;6303444;22;20406;-47
2022/04/26 08:11:00;;;;;;;3.90;2.30;;;28.40;36.50;;;;;;6303079;22;20446;-48
2022/04/26 08:13:27;;;;;;;2.80;2.10;;;29.20;32.80;;;;;;6303211;22;20398;-46
2022/04/26 08:15:53;;;;;;;3.50;2.00;;;29.30;31.00;;;;;;6303074;22;20402;-45
2022/04/26 08:18:20;;;;;;;2.50;2.23;;;29.10;30.00;;;;;;6303559;22;20419;-51
2022/04/26 08:20:48;;;;;;;2.20;1.93;;;29.20;30.20;;;;;;6302799;22;20418;-46
2022/04/26 08:23:15;;;;;;;2.63;2.10;;;29.80;29.40;;;;;;6303247;22;20465;-39
2022/04/26 08:28:34;;;;;;;1.87;1.67;;;30.30;27.70;;;;;;6303909;22;20370;-40
2022/04/26 08:31:02;;;;;;;2.20;1.90;;;30.40;26.40;;;;;;6302681;22;20468;-42
2022/04/26 08:33:30;;;;;;;2.77;2.00;;;30.10;26.40;;;;;;6303598;22;20416;-43
2022/04/26 08:35:58;;;;;;;2.47;1.50;;;29.90;26.80;;;;;;6302321;22;20478;-44
2022/04/26 08:38:31;;;;;;;2.30;2.10;;;29.60;26.50;;;;;;6302690;22;20379;-45
2022/04/26 08:40:57;;;;;;;1.70;1.60;;;29.30;27.60;;;;;;6302637;22;20418;-45
2022/04/26 08:43:27;;;;;;;2.60;2.40;;;29.20;27.20;;;;;;6303378;22;20470;-44
2022/04/26 08:45:58;;;;;;;2.10;1.87;;;29.20;28.00;;;;;;6302619;22;20433;-42
2022/04/26 08:51:13;;;;;;;2.20;2.00;;;29.10;28.30;;;;;;6303415;22;20449;-43
2022/04/26 08:53:39;;;;;;;2.20;2.00;;;28.90;28.00;;;;;;6303595;22;20422;-47
2022/04/26 08:56:07;;;;;;;2.20;2.00;;;28.60;28.40;;;;;;6302482;22;20502;-45
2022/04/26 08:58:37;;;;;;;2.20;2.00;;;28.30;28.70;;;;;;6302014;22;20406;-47
2022/04/26 09:01:06;;;;;;;2.23;2.00;;;28.10;28.90;;;;;;6302177;22;20418;-46
2022/04/26 09:03:33;;;;;;;2.73;2.43;;;28.30;28.80;;;;;;6302082;22;20390;-44
2022/04/26 09:06:05;;;;;;;2.80;2.47;;;28.20;29.00;;;;;;6302493;22;20423;-43
2022/04/26 09:08:34;;;;;;;3.90;2.20;;;28.00;29.70;;;;;;6302633;22;20392;-45
2022/04/26 09:11:01;;;;;;;3.53;2.40;;;27.90;29.70;;;;;;6302317;22;20430;-43
2022/04/26 09:13:29;;;;;;;2.40;2.20;;;28.00;29.70;;;;;;6302231;22;20397;-39
2022/04/26 09:15:58;;;;;;;2.77;2.50;;;28.10;29.20;;;;;;6302262;22;20430;-47
2022/04/26 09:18:28;;;;;;;3.33;2.70;;;28.20;29.50;;;;;;6302293;22;20391;-43
2022/04/26 09:21:01;;;;;;;3.30;3.00;;;28.50;29.80;;;;;;6302142;22;20397;-38
2022/04/26 09:23:29;;;;;;;4.13;2.70;;;28.60;29.70;;;;;;6302116;22;20386;-45
2022/04/26 09:26:08;;;;;;;3.33;2.83;;;28.60;29.50;;;;;;6302280;22;20412;-43
2022/04/26 09:28:36;;;;;;;4.97;2.60;;;28.70;29.60;;;;;;6301999;22;20386;-46
2022/04/26 09:31:17;;;;;;;3.60;3.30;;;28.50;29.80;;;;;;6301928;22;20452;-52
2022/04/26 09:33:47;;;;;;;4.43;3.30;;;28.40;30.40;;;;;;6301861;22;20382;-48
2022/04/26 09:36:15;;;;;;;4.13;2.67;;;28.30;30.30;;;;;;6301370;22;20386;-40
2022/04/26 09:38:50;;;;;;;8.13;3.30;;;28.30;30.70;;;;;;6301960;22;20445;-51
2022/04/26 09:41:18;;;;;;;3.63;2.73;;;28.50;30.70;;;;;;6302340;22;20386;-44
2022/04/26 09:43:55;;;;;;;4.17;2.80;;;28.50;30.60;;;;;;6301565;22;20433;-47
2022/04/26 09:46:23;;;;;;;3.40;2.90;;;28.60;30.00;;;;;;6301732;22;20398;-50
2022/04/26 09:48:52;;;;;;;2.97;2.67;;;28.60;30.70;;;;;;6301888;22;20436;-44
2022/04/26 09:51:19;;;;;;;4.57;3.27;;;28.30;30.80;;;;;;6302203;22;20493;-44
2022/04/26 09:53:46;;;;;;;2.60;2.40;;;28.40;31.00;;;;;;6301912;22;20478;-48
2022/04/26 09:56:14;;;;;;;3.13;2.83;;;28.50;31.20;;;;;;6302233;22;20436;-46
2022/04/26 09:58:44;;;;;;;3.60;2.70;;;28.50;31.20;;;;;;6303017;22;20433;-46
2022/04/26 10:01:11;;;;;;;3.70;3.00;;;28.40;31.50;;;;;;6304026;22;20412;-52
2022/04/26 10:03:41;;;;;;;10.20;3.00;;;28.40;31.40;;;;;;6303896;22;20422;-45
2022/04/26 10:06:10;;;;;;;5.00;3.00;;;28.30;31.20;;;;;;6303906;22;20421;-49
2022/04/26 10:08:37;;;;;;;4.67;3.03;;;28.40;32.20;;;;;;6303570;22;20417;-48
2022/04/26 10:11:05;;;;;;;4.77;3.23;;;28.20;32.00;;;;;;6303957;22;20442;-45
2022/04/26 10:13:40;;;;;;;5.00;3.60;;;28.10;31.40;;;;;;6303680;22;20426;-49
2022/04/26 10:16:10;;;;;;;4.27;3.23;;;28.00;32.20;;;;;;6303693;22;20378;-46
2022/04/26 10:18:43;;;;;;;3.97;2.93;;;27.90;32.60;;;;;;6304195;22;20414;-47
2022/04/26 10:21:10;;;;;;;3.17;2.80;;;27.60;32.80;;;;;;6303964;22;20382;-53
2022/04/26 10:24:12;;;;;;;3.90;3.10;;;27.50;33.40;;;;;;6303609;22;20425;-50
2022/04/26 10:26:39;;;;;;;4.57;2.90;;;27.30;33.20;;;;;;6303746;22;20455;-49
2022/04/26 10:29:17;;;;;;;4.87;3.87;;;27.00;32.90;;;;;;6303569;22;20424;-46
2022/04/26 10:31:47;;;;;;;2.83;2.53;;;26.70;33.10;;;;;;6303937;22;20485;-50
2022/04/26 10:34:17;;;;;;;3.90;2.83;;;26.60;33.10;;;;;;6304447;22;20410;-44
2022/04/26 10:36:44;;;;;;;3.30;3.00;;;26.30;34.30;;;;;;6303005;22;20394;-45
2022/04/26 10:39:38;;;;;;;3.17;2.70;;;26.10;33.70;;;;;;6303328;22;20417;-52
2022/04/26 10:42:25;;;;;;;4.30;2.80;;;25.70;33.70;;;;;;6303486;22;20358;-48
2022/04/26 10:44:57;;;;;;;5.53;3.07;;;25.10;34.60;;;;;;6303829;22;20451;-52
2022/04/26 10:47:35;;;;;;;3.50;2.50;;;24.70;35.80;;;;;;6303964;22;20412;-48
2022/04/26 10:50:03;;;;;;;3.87;2.90;;;24.50;36.70;;;;;;6303316;22;20468;-48
2022/04/26 10:52:44;;;;;;;3.40;2.97;;;24.20;37.00;;;;;;6303632;22;20398;-42
2022/04/26 10:55:14;;;;;;;2.70;2.37;;;24.00;36.60;;;;;;6302990;22;20656;-46
2022/04/26 10:57:43;;;;;;;2.30;2.10;;;23.70;36.70;;;;;;6303247;22;20409;-50
2022/04/26 11:00:13;;;;;;;2.97;2.50;;;23.40;36.70;;;;;;6303199;22;20429;-45
2022/04/26 11:02:43;;;;;;;2.90;2.27;;;23.20;37.20;;;;;;6303609;22;20430;-47
2022/04/26 11:05:11;;;;;;;2.60;2.40;;;23.20;37.10;;;;;;6303077;22;20432;-45
2022/04/26 11:07:39;;;;;;;3.70;2.70;;;23.20;37.70;;;;;;6303121;22;20412;-46
2022/04/26 11:10:08;;;;;;;3.53;2.90;;;23.10;38.00;;;;;;6302471;22;20452;-48
2022/04/26 11:12:36;;;;;;;4.23;3.10;;;22.90;38.00;;;;;;6302625;22;20416;-53
2022/04/26 11:15:07;;;;;;;3.67;3.37;;;22.70;38.00;;;;;;6303237;22;20413;-51
2022/04/26 11:17:34;;;;;;;3.40;2.50;;;22.50;38.20;;;;;;6302679;22;20382;-50
2022/04/26 11:20:04;;;;;;;3.63;2.43;;;22.40;38.50;;;;;;6303231;22;20394;-48
2022/04/26 11:22:31;;;;;;;4.23;3.20;;;22.40;38.60;;;;;;6303050;22;20386;-50
2022/04/26 11:28:00;;;;;;;2.57;2.37;;;22.20;38.10;;;;;;6303323;22;20381;-49
2022/04/26 11:30:29;;;;;;;3.20;2.40;;;22.10;38.30;;;;;;6302590;22;20393;-43
2022/04/26 11:32:57;;;;;;;3.13;2.53;;;21.90;37.90;;;;;;6303369;22;20374;-54
2022/04/26 11:35:26;;;;;;;3.47;3.17;;;21.50;38.20;;;;;;6302894;22;20403;-47
2022/04/26 11:37:54;;;;;;;3.23;2.40;;;21.30;38.80;;;;;;6302895;22;20450;-50
2022/04/26 11:40:26;;;;;;;2.80;2.60;;;21.30;38.70;;;;;;6302917;22;20402;-45
2022/04/26 11:42:53;;;;;;;2.90;2.57;;;21.10;39.60;;;;;;6303037;22;20410;-50
2022/04/26 11:45:22;;;;;;;2.90;2.30;;;21.10;39.10;;;;;;6302787;22;20397;-48
2022/04/26 11:47:50;;;;;;;5.00;2.70;;;21.10;39.30;;;;;;6302374;22;20453;-51
2022/04/26 11:50:20;;;;;;;13.30;3.13;;;21.00;39.20;;;;;;6302427;22;20390;-50
2022/04/26 11:52:49;;;;;;;3.37;2.50;;;21.00;39.50;;;;;;6302439;22;20456;-47
2022/04/26 11:55:20;;;;;;;3.47;2.90;;;21.00;40.20;;;;;;6302525;22;20390;-51
2022/04/26 11:57:49;;;;;;;2.87;2.60;;;20.90;44.50;;;;;;6301986;22;20393;-48
2022/04/26 12:00:18;;;;;;;4.83;2.40;;;20.70;39.80;;;;;;6302597;22;20470;-47
2022/04/26 12:02:48;;;;;;;3.13;2.30;;;20.50;40.00;;;;;;6303217;22;20434;-48
2022/04/26 12:05:15;;;;;;;4.60;2.67;;;20.40;40.50;;;;;;6302648;22;20391;-50
2022/04/26 12:07:42;;;;;;;5.83;2.57;;;20.20;40.70;;;;;;6302282;22;20430;-47
2022/04/26 12:10:26;;;;;;;2.87;2.40;;;20.20;40.60;;;;;;6303044;22;20414;-47
2022/04/26 12:13:01;;;;;;;6.00;2.60;;;20.00;40.40;;;;;;6298414;22;20430;-49
2022/04/26 12:15:30;;;;;;;5.20;2.70;;;20.00;40.10;;;;;;6302552;22;20412;-49
2022/04/26 12:18:09;;;;;;;3.53;2.90;;;20.00;41.10;;;;;;6301833;22;20418;-47
2022/04/26 12:20:36;;;;;;;3.27;2.60;;;20.10;40.80;;;;;;6301793;22;20405;-44
2022/04/26 12:23:05;;;;;;;3.80;2.47;;;20.30;40.20;;;;;;6302051;22;20457;-50
2022/04/26 12:25:35;;;;;;;2.40;2.20;;;20.30;40.10;;;;;;6302834;22;20431;-54
2022/04/26 12:28:09;;;;;;;2.93;2.23;;;20.50;39.70;;;;;;6301467;22;20498;-47
2022/04/26 12:30:38;;;;;;;2.53;2.33;;;20.40;40.30;;;;;;6302362;22;20378;-46
2022/04/26 12:33:07;;;;;;;2.90;2.60;;;20.50;40.50;;;;;;6301935;22;20418;-50
2022/04/26 12:35:34;;;;;;;3.20;2.33;;;20.50;40.30;;;;;;6302052;22;20440;-49
2022/04/26 12:38:07;;;;;;;5.70;2.77;;;20.40;40.10;;;;;;6301937;22;20462;-51
2022/04/26 12:40:35;;;;;;;6.70;3.23;;;20.30;40.30;;;;;;6303388;22;20395;-49
2022/04/26 12:43:03;;;;;;;5.40;3.20;;;20.30;42.00;;;;;;6303335;22;20432;-47
2022/04/26 12:45:30;;;;;;;2.77;2.50;;;20.40;43.20;;;;;;6304234;22;20446;-53
2022/04/26 12:50:53;;;;;;;7.13;2.30;;;20.60;42.00;;;;;;6303742;22;20366;-50
2022/04/26 12:53:25;;;;;;;3.33;2.63;;;20.60;40.20;;;;;;6303472;22;20453;-48
2022/04/26 12:55:54;;;;;;;2.93;2.70;;;20.70;40.30;;;;;;6303483;22;20399;-50
2022/04/26 12:58:37;;;;;;;2.37;2.17;;;20.40;39.70;;;;;;6303086;22;20426;-48
2022/04/26 13:01:05;;;;;;;3.93;2.40;;;20.10;40.60;;;;;;6302941;22;20373;-52
2022/04/26 13:03:32;;;;;;;2.50;2.23;;;19.80;40.30;;;;;;6303361;22;20453;-44
2022/04/26 13:06:08;;;;;;;3.40;2.20;;;19.70;40.60;;;;;;6303314;22;20426;-49
2022/04/26 13:08:36;;;;;;;3.47;2.60;;;19.50;40.70;;;;;;6303127;22;20378;-45
2022/04/26 13:11:06;;;;;;;2.47;2.10;;;19.40;39.80;;;;;;6303151;22;20429;-45
2022/04/26 13:13:34;;;;;;;3.67;2.67;;;19.20;40.10;;;;;;6303169;22;20399;-48
2022/04/26 13:16:02;;;;;;;3.30;2.50;;;19.00;40.30;;;;;;6303084;22;20463;-46
2022/04/26 13:18:30;;;;;;;4.47;2.53;;;18.90;39.50;;;;;;6303040;22;20416;-50
2022/04/26 13:20:57;;;;;;;3.43;2.20;;;18.70;40.70;;;;;;6303198;22;20471;-47
2022/04/26 13:23:25;;;;;;;3.03;2.73;;;18.60;41.70;;;;;;6303055;22;20410;-47
2022/04/26 13:25:53;;;;;;;7.20;2.67;;;18.50;42.00;;;;;;6302737;22;20430;-48
2022/04/26 13:28:21;;;;;;;11.30;2.90;;;18.50;41.90;;;;;;6303346;22;20394;-45
2022/04/26 13:30:49;;;;;;;4.87;3.57;;;18.70;42.00;;;;;;6302591;22;20411;-42
2022/04/26 13:33:15;;;;;;;3.30;2.57;;;18.90;41.10;;;;;;6302900;22;20397;-49
2022/04/26 13:35:42;;;;;;;4.10;2.50;;;19.10;41.30;;;;;;6302741;22;20444;-48
2022/04/26 13:38:10;;;;;;;2.33;2.13;;;19.30;40.50;;;;;;6302593;22;20393;-49
2022/04/26 13:40:38;;;;;;;3.00;2.30;;;19.40;40.70;;;;;;6302832;22;20406;-47
2022/04/26 13:43:05;;;;;;;4.83;2.70;;;19.50;40.40;;;;;;6303039;22;20486;-50
2022/04/26 13:45:35;;;;;;;4.00;2.47;;;19.40;39.70;;;;;;6301889;22;20434;-46
2022/04/26 13:48:02;;;;;;;3.60;2.10;;;19.40;40.70;;;;;;6302592;22;20428;-51
2022/04/26 13:50:30;;;;;;;4.90;2.57;;;19.30;40.70;;;;;;6302056;22;20450;-49
2022/04/26 13:52:57;;;;;;;5.60;3.10;;;19.30;40.70;;;;;;6302509;22;20445;-51
2022/04/26 13:55:26;;;;;;;2.37;2.13;;;19.10;40.30;;;;;;6302507;22;20422;-53
2022/04/26 13:57:54;;;;;;;4.00;2.03;;;19.00;41.50;;;;;;6302155;22;20410;-47
2022/04/26 14:00:22;;;;;;;2.87;2.50;;;18.90;41.40;;;;;;6302517;22;20417;-55
2022/04/26 14:02:50;;;;;;;10.53;3.20;;;18.90;41.10;;;;;;6275709;22;20408;-55
2022/04/26 14:05:20;;;;;;;3.17;2.50;;;18.80;41.70;;;;;;6302440;22;20428;-46
2022/04/26 14:07:47;;;;;;;4.87;2.67;;;18.70;41.60;;;;;;6302082;22;20481;-52
2022/04/26 14:10:14;;;;;;;3.47;2.20;;;18.70;40.70;;;;;;6302107;22;20402;-54
2022/04/26 14:12:41;;;;;;;3.00;2.23;;;18.50;41.10;;;;;;6302410;22;20465;-53
2022/04/26 14:23:27;;;;;;;2.40;2.10;;;19.30;41.20;;;;;;6302517;22;20386;-52
2022/04/26 14:25:54;;;;;;;3.43;2.77;;;19.60;41.20;;;;;;6302481;22;20462;-53
2022/04/26 14:28:21;;;;;;;4.33;2.80;;;19.80;40.30;;;;;;6303250;22;20466;-53
2022/04/26 14:30:48;;;;;;;4.20;3.50;;;20.00;40.50;;;;;;6302486;22;20399;-52
2022/04/26 14:33:17;;;;;;;4.67;2.73;;;20.20;39.40;;;;;;6302439;22;20444;-52
2022/04/26 14:35:45;;;;;;;4.07;2.93;;;20.30;39.20;;;;;;6302751;22;20399;-50
2022/04/26 14:38:13;;;;;;;2.80;2.50;;;20.40;39.50;;;;;;6301895;22;20400;-49
2022/04/26 14:40:40;;;;;;;3.40;3.10;;;20.60;38.30;;;;;;6301463;22;20434;-48
2022/04/26 14:43:09;;;;;;;3.00;2.43;;;20.70;38.50;;;;;;6302115;22;20477;-52
2022/04/26 14:45:44;;;;;;;2.93;2.40;;;20.70;39.00;;;;;;6303714;22;20427;-51
2022/04/26 14:48:11;;;;;;;4.30;2.10;;;20.80;38.30;;;;;;6303663;22;20430;-47
2022/04/26 14:50:40;;;;;;;2.93;1.87;;;20.90;38.10;;;;;;6304052;22;20410;-53
2022/04/26 14:53:07;;;;;;;2.50;2.00;;;21.00;38.20;;;;;;6303857;22;20441;-48
2022/04/26 14:55:34;;;;;;;5.03;2.67;;;21.00;38.70;;;;;;6300934;22;20412;-53
2022/04/26 14:58:01;;;;;;;5.80;2.97;;;21.00;38.90;;;;;;6297350;22;20438;-54
2022/04/26 15:00:28;;;;;;;3.40;2.40;;;21.10;37.80;;;;;;6298197;22;20398;-54
2022/04/26 15:02:55;;;;;;;2.47;2.27;;;21.10;37.70;;;;;;6297470;22;20460;-54
2022/04/26 15:05:23;;;;;;;3.30;2.90;;;21.10;37.40;;;;;;6298069;22;20436;-52
2022/04/26 15:10:36;;;;;;;2.90;2.37;;;21.10;37.60;;;;;;6298030;22;20627;-51
2022/04/26 15:18:34;;;;;;;3.70;2.07;;;20.80;36.80;;;;;;6298074;22;20409;-53
2022/04/26 15:21:03;;;;;;;4.37;2.47;;;20.90;37.90;;;;;;6296940;22;20398;-54
2022/04/26 15:23:31;;;;;;;3.43;3.13;;;20.90;37.50;;;;;;6297612;22;20426;-55
2022/04/26 15:25:57;;;;;;;3.70;2.70;;;20.90;37.80;;;;;;6297550;22;20736;-53
2022/04/26 15:28:24;;;;;;;3.43;2.37;;;21.00;37.50;;;;;;6297694;22;20428;-55
2022/04/26 15:30:52;;;;;;;3.50;2.40;;;21.00;37.00;;;;;;6297662;22;20445;-57
2022/04/26 15:33:19;;;;;;;3.70;2.23;;;20.90;37.10;;;;;;6298153;22;20452;-50
2022/04/26 15:35:47;;;;;;;3.40;2.60;;;20.90;37.00;;;;;;6297011;22;20394;-51
2022/04/26 15:38:14;;;;;;;3.60;2.70;;;20.70;37.50;;;;;;6297346;22;20406;-51
2022/04/26 15:40:46;;;;;;;4.50;2.60;;;20.50;37.60;;;;;;6297757;22;20450;-51
2022/04/26 15:43:13;;;;;;;3.63;2.60;;;20.30;37.70;;;;;;6297134;22;20375;-55
2022/04/26 15:45:42;;;;;;;3.80;2.63;;;20.00;38.30;;;;;;6297039;22;20398;-51
2022/04/26 15:48:09;;;;;;;3.00;2.70;;;19.80;38.80;;;;;;6296439;22;20398;-51
2022/04/26 15:50:39;;;;;;;4.97;4.40;;;19.60;38.70;;;;;;6298377;22;20386;-53
2022/04/26 15:53:06;;;;;;;4.37;2.60;;;19.40;38.20;;;;;;6297819;22;20472;-57
2022/04/26 15:55:33;;;;;;;8.23;2.33;;;19.30;38.20;;;;;;6297952;22;20424;-51
2022/04/26 15:58:01;;;;;;;4.43;2.40;;;19.20;38.90;;;;;;6298304;22;20421;-51
2022/04/26 16:00:28;;;;;;;3.07;2.10;;;19.10;39.40;;;;;;6298647;22;20493;-53
2022/04/26 16:02:55;;;;;;;3.60;2.70;;;19.00;39.40;;;;;;6297819;22;20433;-55
2022/04/26 16:05:22;;;;;;;4.20;2.20;;;19.00;39.50;;;;;;6297627;22;20433;-55
2022/04/26 16:07:49;;;;;;;5.60;2.67;;;18.90;39.30;;;;;;6297452;22;20422;-51
2022/04/26 16:21:15;;;;;;;5.70;2.20;;;18.60;40.60;;;;;;6298650;22;20417;-55
2022/04/26 16:23:42;;;;;;;3.90;2.77;;;18.60;40.80;;;;;;6298145;22;20394;-54
2022/04/26 16:26:11;;;;;;;3.60;1.87;;;18.60;40.80;;;;;;6298346;22;20436;-54
2022/04/26 16:28:39;;;;;;;4.93;2.20;;;18.50;41.00;;;;;;6298769;22;20681;-52
2022/04/26 16:31:06;;;;;;;4.00;2.10;;;18.50;41.00;;;;;;6297802;22;20425;-55
2022/04/26 16:33:32;;;;;;;4.80;2.10;;;18.50;41.50;;;;;;6298262;22;20465;-56
2022/04/26 16:35:59;;;;;;;2.70;2.43;;;18.40;42.10;;;;;;6297008;22;20422;-52
2022/04/26 16:38:26;;;;;;;4.07;2.90;;;18.40;42.10;;;;;;6297793;22;20409;-55
2022/04/26 16:40:53;;;;;;;4.90;2.73;;;18.40;42.20;;;;;;6297362;22;20494;-49
2022/04/26 16:43:20;;;;;;;7.80;2.70;;;18.30;42.80;;;;;;6297655;22;20426;-53
2022/04/26 16:45:49;;;;;;;3.83;2.77;;;18.30;43.40;;;;;;6297858;22;20426;-49
2022/04/26 16:48:16;;;;;;;3.47;2.70;;;18.20;43.50;;;;;;6297854;22;20678;-55
2022/04/26 16:50:43;;;;;;;5.20;3.17;;;18.20;43.40;;;;;;6297011;22;20440;-55
2022/04/26 16:53:10;;;;;;;3.33;2.60;;;18.20;43.50;;;;;;6297124;22;20469;-53
2022/04/26 16:55:36;;;;;;;2.73;2.17;;;18.20;44.50;;;;;;6297815;22;20466;-52
2022/04/26 16:58:03;;;;;;;9.47;2.83;;;18.20;43.70;;;;;;6297064;22;20414;-52
2022/04/26 17:00:30;;;;;;;3.70;2.80;;;18.10;44.10;;;;;;6296649;22;20403;-50
2022/04/26 17:02:59;;;;;;;4.33;2.77;;;18.20;44.10;;;;;;6297174;22;20391;-52
2022/04/26 17:05:27;;;;;;;3.30;2.70;;;18.10;43.80;;;;;;6296928;22;20402;-53
2022/04/26 17:07:56;;;;;;;5.00;3.20;;;18.10;44.40;;;;;;6297904;22;20398;-55
2022/04/26 17:10:23;;;;;;;3.17;2.30;;;18.10;44.80;;;;;;6297485;22;20406;-53
2022/04/26 17:12:52;;;;;;;2.33;2.13;;;18.00;44.40;;;;;;6297940;22;20470;-53